createdAt,value
2017-10-21T00:01:08.694Z,4.80
2017-10-21T00:03:35.285Z,4.60
2017-10-21T00:06:01.911Z,4.03
2017-10-21T00:08:28.514Z,4.70
2017-10-21T00:10:55.137Z,5.30
2017-10-21T00:13:21.879Z,4.63
2017-10-21T00:15:48.495Z,5.00
2017-10-21T00:18:15.089Z,4.80
2017-10-21T00:20:41.693Z,5.10
2017-10-21T00:23:08.309Z,4.77
2017-10-21T00:25:34.897Z,4.90
2017-10-21T00:28:01.526Z,4.67
2017-10-21T00:30:28.120Z,4.67
2017-10-21T00:32:54.741Z,5.00
2017-10-21T00:35:21.346Z,5.30
2017-10-21T00:37:47.966Z,4.70
2017-10-21T00:40:14.582Z,5.77
2017-10-21T00:42:41.266Z,5.70
2017-10-21T00:45:07.877Z,5.53
2017-10-21T00:47:34.501Z,4.93
2017-10-21T00:50:01.140Z,4.90
2017-10-21T00:52:27.761Z,4.53
2017-10-21T00:54:54.354Z,5.10
2017-10-21T00:57:20.958Z,4.90
2017-10-21T00:59:47.583Z,4.70
2017-10-21T01:02:14.181Z,5.40
2017-10-21T01:04:40.800Z,4.87
2017-10-21T01:07:07.417Z,4.87
2017-10-21T01:09:34.048Z,5.37
2017-10-21T01:12:00.640Z,5.27
2017-10-21T01:14:27.273Z,4.83
2017-10-21T01:16:53.869Z,5.53
2017-10-21T01:19:20.465Z,5.90
2017-10-21T01:21:47.128Z,5.40
2017-10-21T01:24:13.711Z,5.33
2017-10-21T01:26:40.345Z,6.23
2017-10-21T01:29:06.953Z,6.30
2017-10-21T01:31:33.552Z,5.67
2017-10-21T01:34:00.160Z,5.67
2017-10-21T01:36:26.779Z,5.70
2017-10-21T01:38:53.374Z,6.10
2017-10-21T01:41:20.005Z,6.20
2017-10-21T01:43:46.588Z,5.80
2017-10-21T01:46:13.192Z,5.37
2017-10-21T01:48:39.810Z,5.73
2017-10-21T01:51:06.403Z,5.63
2017-10-21T01:53:33.021Z,5.60
2017-10-21T01:55:59.658Z,5.90
2017-10-21T01:58:26.295Z,6.10
2017-10-21T02:00:52.873Z,6.20
2017-10-21T02:03:19.490Z,5.73
2017-10-21T02:05:46.112Z,6.70
2017-10-21T02:08:12.736Z,6.53
2017-10-21T02:10:39.337Z,6.00
2017-10-21T02:13:05.954Z,5.63
2017-10-21T02:15:32.549Z,6.13
2017-10-21T02:17:59.171Z,6.03
2017-10-21T02:20:25.780Z,6.00
2017-10-21T02:22:52.460Z,6.73
2017-10-21T02:25:19.108Z,7.30
2017-10-21T02:27:45.709Z,7.23
2017-10-21T02:30:12.313Z,6.73
2017-10-21T02:32:38.928Z,6.37
2017-10-21T02:35:05.577Z,6.67
2017-10-21T02:37:32.191Z,6.77
2017-10-21T02:39:58.784Z,7.30
2017-10-21T02:42:25.410Z,7.20
2017-10-21T02:44:52.003Z,7.00
2017-10-21T02:47:18.594Z,7.00
2017-10-21T02:49:45.221Z,6.60
2017-10-21T02:52:11.833Z,6.90
2017-10-21T02:54:38.549Z,6.63
2017-10-21T02:57:05.149Z,6.33
2017-10-21T02:59:31.768Z,6.37
2017-10-21T03:01:58.371Z,7.37
2017-10-21T03:04:24.976Z,6.77
2017-10-21T03:06:51.590Z,6.80
2017-10-21T03:09:18.210Z,7.83
2017-10-21T03:11:44.803Z,7.00
2017-10-21T03:14:11.405Z,6.50
2017-10-21T03:16:38.432Z,6.37
2017-10-21T03:19:05.132Z,5.10
2017-10-21T03:21:31.709Z,4.97
2017-10-21T03:23:58.316Z,5.60
2017-10-21T03:26:24.933Z,5.40
2017-10-21T03:28:51.529Z,5.20
2017-10-21T03:31:18.129Z,5.00
2017-10-21T03:33:44.745Z,4.97
2017-10-21T03:36:11.333Z,5.27
2017-10-21T03:38:37.970Z,4.87
2017-10-21T03:41:04.585Z,5.30
2017-10-21T03:43:31.306Z,5.23
2017-10-21T03:45:57.904Z,5.60
2017-10-21T03:48:24.505Z,5.40
2017-10-21T03:50:51.135Z,5.00
2017-10-21T03:53:17.745Z,5.00
2017-10-21T03:55:44.353Z,5.60
2017-10-21T03:58:11.808Z,5.70
2017-10-21T04:00:38.433Z,5.50
2017-10-21T04:03:05.024Z,5.50
2017-10-21T04:05:31.641Z,4.47
2017-10-21T04:07:58.261Z,5.70
2017-10-21T04:10:24.877Z,5.57
2017-10-21T04:12:51.477Z,6.50
2017-10-21T04:15:18.113Z,6.80
2017-10-21T04:17:44.749Z,6.40
2017-10-21T04:20:11.362Z,7.63
2017-10-21T04:22:37.972Z,7.83
2017-10-21T04:25:04.599Z,8.70
2017-10-21T04:27:31.208Z,7.53
2017-10-21T04:29:57.839Z,8.67
2017-10-21T04:32:24.426Z,6.97
2017-10-21T04:34:51.049Z,8.33
2017-10-21T04:37:17.650Z,6.73
2017-10-21T04:39:44.249Z,7.60
2017-10-21T04:42:10.870Z,6.90
2017-10-21T04:44:37.490Z,6.83
2017-10-21T04:47:04.085Z,6.73
2017-10-21T04:49:30.709Z,5.67
2017-10-21T04:51:57.300Z,6.07
2017-10-21T04:54:23.950Z,5.40
2017-10-21T04:56:50.557Z,5.90
2017-10-21T04:59:17.153Z,6.53
2017-10-21T05:01:43.774Z,6.73
2017-10-21T05:04:10.374Z,5.60
2017-10-21T05:06:37.016Z,6.00
2017-10-21T05:09:03.645Z,6.70
2017-10-21T05:11:30.285Z,5.90
2017-10-21T05:13:56.925Z,6.07
2017-10-21T05:16:23.547Z,6.70
2017-10-21T05:18:50.150Z,6.10
2017-10-21T05:21:16.773Z,6.37
2017-10-21T05:23:43.373Z,7.17
2017-10-21T05:26:10.008Z,7.20
2017-10-21T05:28:36.601Z,7.63
2017-10-21T05:31:03.225Z,8.10
2017-10-21T05:33:29.862Z,8.50
2017-10-21T05:35:56.457Z,7.33
2017-10-21T05:38:23.058Z,7.63
2017-10-21T05:40:49.721Z,7.90
2017-10-21T05:43:16.308Z,7.50
2017-10-21T05:45:42.916Z,8.40
2017-10-21T05:48:09.545Z,8.73
2017-10-21T05:50:36.174Z,7.77
2017-10-21T05:53:02.766Z,7.57
2017-10-21T05:55:29.376Z,7.60
2017-10-21T05:57:55.967Z,7.70
2017-10-21T06:00:22.568Z,8.00
2017-10-21T06:02:49.257Z,7.97
2017-10-21T06:05:15.865Z,8.37
2017-10-21T06:07:42.453Z,8.53
2017-10-21T06:10:09.081Z,9.17
2017-10-21T06:12:35.707Z,9.80
2017-10-21T06:15:02.350Z,11.13
2017-10-21T06:17:34.900Z,10.80
2017-10-21T06:20:01.521Z,9.77
2017-10-21T06:22:28.129Z,11.20
2017-10-21T06:24:54.749Z,9.10
2017-10-21T06:27:21.359Z,10.10
2017-10-21T06:29:47.981Z,9.53
2017-10-21T06:32:14.592Z,9.80
2017-10-21T06:34:41.232Z,9.80
2017-10-21T06:37:07.825Z,9.57
2017-10-21T06:39:34.428Z,9.80
2017-10-21T06:42:01.060Z,10.03
2017-10-21T06:44:27.664Z,13.00
2017-10-21T06:46:54.296Z,10.97
2017-10-21T06:49:20.928Z,11.67
2017-10-21T06:51:47.533Z,11.17
2017-10-21T06:54:14.132Z,11.77
2017-10-21T06:56:40.870Z,10.67
2017-10-21T06:59:07.459Z,12.47
2017-10-21T07:01:34.146Z,12.57
2017-10-21T07:04:00.779Z,11.70
2017-10-21T07:06:27.423Z,11.50
2017-10-21T07:08:54.013Z,11.77
2017-10-21T07:11:20.705Z,10.70
2017-10-21T07:13:47.304Z,10.20
2017-10-21T07:16:13.949Z,12.10
2017-10-21T07:18:40.553Z,12.50
2017-10-21T07:21:07.168Z,11.50
2017-10-21T07:23:33.790Z,9.57
2017-10-21T07:26:00.653Z,10.03
2017-10-21T07:28:27.368Z,10.80
2017-10-21T07:30:53.957Z,8.90
2017-10-21T07:33:20.607Z,9.47
2017-10-21T07:35:47.205Z,10.10
2017-10-21T07:38:13.818Z,9.80
2017-10-21T07:40:40.444Z,11.50
2017-10-21T07:43:07.075Z,11.27
2017-10-21T07:45:33.690Z,10.63
2017-10-21T07:48:00.341Z,12.13
2017-10-21T07:50:27.012Z,11.23
2017-10-21T07:52:53.647Z,12.33
2017-10-21T07:55:20.240Z,10.60
2017-10-21T07:57:46.874Z,10.80
2017-10-21T08:00:13.492Z,11.10
2017-10-21T08:02:40.078Z,11.13
2017-10-21T08:05:06.697Z,13.00
2017-10-21T08:07:33.296Z,11.60
2017-10-21T08:10:00.007Z,12.33
2017-10-21T08:12:26.604Z,12.40
2017-10-21T08:14:53.225Z,15.93
2017-10-21T08:17:19.920Z,17.53
2017-10-21T08:19:46.516Z,22.00
2017-10-21T08:22:13.109Z,26.47
2017-10-21T08:24:39.731Z,31.77
2017-10-21T08:27:06.367Z,31.87
2017-10-21T08:29:32.977Z,31.00
2017-10-21T08:31:59.584Z,28.97
2017-10-21T08:34:26.212Z,31.90
2017-10-21T08:36:52.923Z,31.60
2017-10-21T08:39:19.508Z,31.53
2017-10-21T08:41:46.124Z,30.93
2017-10-21T08:44:12.842Z,29.30
2017-10-21T08:46:39.428Z,28.90
2017-10-21T08:49:06.049Z,28.70
2017-10-21T08:51:32.696Z,26.63
2017-10-21T08:53:59.309Z,22.00
2017-10-21T08:56:25.957Z,23.50
2017-10-21T08:58:52.605Z,23.53
2017-10-21T09:01:19.209Z,23.17
2017-10-21T09:03:45.852Z,22.07
2017-10-21T09:06:12.460Z,24.03
2017-10-21T09:08:39.086Z,27.60
2017-10-21T09:11:05.751Z,27.27
2017-10-21T09:13:32.361Z,21.40
2017-10-21T09:15:58.979Z,15.70
2017-10-21T09:18:25.577Z,13.77
2017-10-21T09:20:52.221Z,10.57
2017-10-21T09:23:18.820Z,7.80
2017-10-21T09:25:45.417Z,7.10
2017-10-21T09:28:12.041Z,6.40
2017-10-21T09:30:38.699Z,6.20
2017-10-21T09:33:05.344Z,5.43
2017-10-21T09:35:32.062Z,5.33
2017-10-21T09:37:58.660Z,4.97
2017-10-21T09:40:25.273Z,4.67
2017-10-21T09:42:51.894Z,4.70
2017-10-21T09:45:18.531Z,4.80
2017-10-21T09:47:45.269Z,5.03
2017-10-21T09:50:11.912Z,4.57
2017-10-21T09:52:38.560Z,5.20
2017-10-21T09:55:05.165Z,5.90
2017-10-21T09:57:31.773Z,6.80
2017-10-21T09:59:58.403Z,6.67
2017-10-21T10:02:25.042Z,8.03
2017-10-21T10:04:51.698Z,8.93
2017-10-21T10:07:18.302Z,6.90
2017-10-21T10:09:44.957Z,6.80
2017-10-21T10:12:11.560Z,6.87
2017-10-21T10:14:38.161Z,8.53
2017-10-21T10:17:04.773Z,9.37
2017-10-21T10:19:31.406Z,9.40
2017-10-21T10:21:58.038Z,8.53
2017-10-21T10:24:24.644Z,11.00
2017-10-21T10:26:51.289Z,12.00
2017-10-21T10:29:17.887Z,9.93
2017-10-21T10:31:44.492Z,9.43
2017-10-21T10:34:11.129Z,10.23
2017-10-21T10:36:38.711Z,9.17
2017-10-21T10:39:05.327Z,10.80
2017-10-21T10:41:31.990Z,15.67
2017-10-21T10:43:58.616Z,15.30
2017-10-21T10:46:25.217Z,15.70
2017-10-21T10:48:51.817Z,13.10
2017-10-21T10:51:18.449Z,11.13
2017-10-21T10:53:45.061Z,8.57
2017-10-21T10:56:11.694Z,7.37
2017-10-21T10:58:38.346Z,7.50
2017-10-21T11:01:04.937Z,8.40
2017-10-21T11:03:31.564Z,6.93
2017-10-21T11:05:58.185Z,8.27
2017-10-21T11:08:24.879Z,7.17
2017-10-21T11:10:51.479Z,7.23
2017-10-21T11:13:18.116Z,7.73
2017-10-21T11:15:44.745Z,7.87
2017-10-21T11:18:11.430Z,8.10
2017-10-21T11:20:38.021Z,8.47
2017-10-21T11:23:04.644Z,8.43
2017-10-21T11:25:31.264Z,9.20
2017-10-21T11:27:57.857Z,8.77
2017-10-21T11:30:24.443Z,8.70
2017-10-21T11:32:51.244Z,9.37
2017-10-21T11:35:17.897Z,9.73
2017-10-21T11:37:44.509Z,9.47
2017-10-21T11:40:11.101Z,8.80
2017-10-21T11:42:37.729Z,9.33
2017-10-21T11:45:04.328Z,9.27
2017-10-21T11:47:30.952Z,8.07
2017-10-21T11:49:57.552Z,9.67
2017-10-21T11:52:24.210Z,8.73
2017-10-21T11:54:50.897Z,8.23
2017-10-21T11:57:17.498Z,8.30
2017-10-21T11:59:44.143Z,7.67
2017-10-21T12:02:10.800Z,8.20
2017-10-21T12:04:37.418Z,8.43
2017-10-21T12:07:04.053Z,7.37
2017-10-21T12:09:30.640Z,7.53
2017-10-21T12:11:57.373Z,7.77
2017-10-21T12:14:24.080Z,7.10
2017-10-21T12:16:50.678Z,7.50
2017-10-21T12:19:17.301Z,7.03
2017-10-21T12:21:43.897Z,6.73
2017-10-21T12:24:10.497Z,7.23
2017-10-21T12:26:37.124Z,7.40
2017-10-21T12:29:03.715Z,7.07
2017-10-21T12:31:30.326Z,7.53
2017-10-21T12:33:57.014Z,6.37
2017-10-21T12:36:23.625Z,6.67
2017-10-21T12:38:50.227Z,6.97
2017-10-21T12:41:16.931Z,7.20
2017-10-21T12:43:43.604Z,7.33
2017-10-21T12:46:10.223Z,6.70
2017-10-21T12:48:36.944Z,6.90
2017-10-21T12:51:03.548Z,7.30
2017-10-21T12:53:30.174Z,6.77
2017-10-21T12:55:56.768Z,6.57
2017-10-21T12:58:23.410Z,7.23
2017-10-21T13:00:49.992Z,6.40
2017-10-21T13:03:16.593Z,6.10
2017-10-21T13:05:43.230Z,6.43
2017-10-21T13:08:09.854Z,7.23
2017-10-21T13:10:36.583Z,7.03
2017-10-21T13:13:03.181Z,7.40
2017-10-21T13:15:29.865Z,6.50
2017-10-21T13:17:56.456Z,6.43
2017-10-21T13:20:23.054Z,6.67
2017-10-21T13:22:49.696Z,6.97
2017-10-21T13:25:16.288Z,7.50
2017-10-21T13:27:42.896Z,7.50
2017-10-21T13:30:09.587Z,6.93
2017-10-21T13:32:36.192Z,6.77
2017-10-21T13:35:02.829Z,7.20
2017-10-21T13:37:29.436Z,7.30
2017-10-21T13:39:56.027Z,7.27
2017-10-21T13:42:22.689Z,8.70
2017-10-21T13:44:49.308Z,9.30
2017-10-21T13:47:15.947Z,9.87
2017-10-21T13:49:42.563Z,11.57
2017-10-21T13:52:09.186Z,10.60
2017-10-21T13:54:35.796Z,12.13
2017-10-21T13:57:02.426Z,13.43
2017-10-21T13:59:29.067Z,13.23
2017-10-21T14:01:55.774Z,12.93
2017-10-21T14:04:22.363Z,12.07
2017-10-21T14:06:48.989Z,11.83
2017-10-21T14:09:15.610Z,11.50
2017-10-21T14:11:42.229Z,12.47
2017-10-21T14:14:08.850Z,11.13
2017-10-21T14:16:35.454Z,10.23
2017-10-21T14:19:02.072Z,11.80
2017-10-21T14:21:28.695Z,10.60
2017-10-21T14:23:55.561Z,9.93
2017-10-21T14:26:22.204Z,10.93
2017-10-21T14:28:48.816Z,11.13
2017-10-21T14:31:15.416Z,10.23
2017-10-21T14:33:42.048Z,9.97
2017-10-21T14:36:08.672Z,5.93
2017-10-21T14:38:35.264Z,4.77
2017-10-21T14:41:01.890Z,3.20
2017-10-21T14:43:28.487Z,2.80
2017-10-21T14:45:55.084Z,2.60
2017-10-21T14:48:21.717Z,2.20
2017-10-21T14:50:48.314Z,2.30
2017-10-21T14:53:14.944Z,2.13
2017-10-21T14:55:41.789Z,2.20
2017-10-21T14:58:08.414Z,2.30
2017-10-21T15:00:35.022Z,2.20
2017-10-21T15:03:01.677Z,2.23
2017-10-21T15:05:28.317Z,2.43
2017-10-21T15:07:54.917Z,2.53
2017-10-21T15:10:21.528Z,2.40
2017-10-21T15:12:48.150Z,2.50
2017-10-21T15:15:14.764Z,2.77
2017-10-21T15:17:41.369Z,3.00
2017-10-21T15:20:07.994Z,2.70
2017-10-21T15:22:34.607Z,3.03
2017-10-21T15:25:01.229Z,3.00
2017-10-21T15:27:27.861Z,3.30
2017-10-21T15:29:54.535Z,3.50
2017-10-21T15:32:21.140Z,3.53
2017-10-21T15:34:47.732Z,3.33
2017-10-21T15:37:14.358Z,3.40
2017-10-21T15:39:40.953Z,3.63
2017-10-21T15:42:07.569Z,3.40
2017-10-21T15:44:34.199Z,3.80
2017-10-21T15:47:00.835Z,2.90
2017-10-21T15:49:27.532Z,2.73
2017-10-21T15:51:54.170Z,3.43
2017-10-21T15:54:21.143Z,3.30
2017-10-21T15:56:48.096Z,2.47
2017-10-21T15:59:14.694Z,2.90
2017-10-21T16:01:41.326Z,3.03
2017-10-21T16:04:07.962Z,2.40
2017-10-21T16:06:34.589Z,3.03
2017-10-21T16:09:01.214Z,2.70
2017-10-21T16:11:27.813Z,2.60
2017-10-21T16:13:54.433Z,2.40
2017-10-21T16:16:21.087Z,3.00
2017-10-21T16:18:47.660Z,2.30
2017-10-21T16:21:14.306Z,2.20
2017-10-21T16:23:40.905Z,2.37
2017-10-21T16:26:07.516Z,2.90
2017-10-21T16:28:34.121Z,2.90
2017-10-21T16:31:00.761Z,2.43
2017-10-21T16:33:27.377Z,2.50
2017-10-21T16:35:54.000Z,3.60
2017-10-21T16:38:20.638Z,2.73
2017-10-21T16:40:47.265Z,2.70
2017-10-21T16:43:13.883Z,3.00
2017-10-21T16:45:40.501Z,2.23
2017-10-21T16:48:07.093Z,2.30
2017-10-21T16:50:33.721Z,1.80
2017-10-21T16:53:00.332Z,2.10
2017-10-21T16:55:26.940Z,2.00
2017-10-21T16:57:54.574Z,2.37
2017-10-21T17:00:21.178Z,2.47
2017-10-21T17:02:47.769Z,1.83
2017-10-21T17:05:14.399Z,2.10
2017-10-21T17:07:41.046Z,2.47
2017-10-21T17:10:07.680Z,1.70
2017-10-21T17:12:34.319Z,2.13
2017-10-21T17:15:00.905Z,1.87
2017-10-21T17:17:27.540Z,1.70
2017-10-21T17:19:54.145Z,2.20
2017-10-21T17:22:20.767Z,2.30
2017-10-21T17:24:47.376Z,1.80
2017-10-21T17:27:14.042Z,2.00
2017-10-21T17:29:40.686Z,1.93
2017-10-21T17:32:07.270Z,2.40
2017-10-21T17:34:33.961Z,1.60
2017-10-21T17:37:00.577Z,1.57
2017-10-21T17:39:27.208Z,1.80
2017-10-21T17:41:53.829Z,1.93
2017-10-21T17:44:20.458Z,1.30
2017-10-21T17:46:47.058Z,1.17
2017-10-21T17:49:13.675Z,1.40
2017-10-21T17:51:40.294Z,1.57
2017-10-21T17:54:06.908Z,1.60
2017-10-21T17:56:33.515Z,1.30
2017-10-21T17:59:00.133Z,1.10
2017-10-21T18:01:26.769Z,1.03
2017-10-21T18:03:53.362Z,1.33
2017-10-21T18:06:19.984Z,1.97
2017-10-21T18:08:46.580Z,1.60
2017-10-21T18:11:13.186Z,1.93
2017-10-21T18:13:39.806Z,2.03
2017-10-21T18:16:06.410Z,1.80
2017-10-21T18:18:33.018Z,1.70
2017-10-21T18:20:59.633Z,1.80
2017-10-21T18:23:26.252Z,1.50
2017-10-21T18:25:52.856Z,1.60
2017-10-21T18:28:19.480Z,1.63
2017-10-21T18:30:46.072Z,1.53
2017-10-21T18:33:12.661Z,1.97
2017-10-21T18:35:39.292Z,1.90
2017-10-21T18:38:05.918Z,1.47
2017-10-21T18:40:32.521Z,2.03
2017-10-21T18:42:59.122Z,2.33
2017-10-21T18:45:25.748Z,2.23
2017-10-21T18:47:52.480Z,2.53
2017-10-21T18:50:19.137Z,2.03
2017-10-21T18:52:45.856Z,2.63
2017-10-21T18:55:12.459Z,1.70
2017-10-21T18:57:39.040Z,2.30
2017-10-21T19:00:05.679Z,1.93
2017-10-21T19:02:32.410Z,2.30
2017-10-21T19:04:58.996Z,2.00
2017-10-21T19:07:25.601Z,1.63
2017-10-21T19:09:52.214Z,1.90
2017-10-21T19:12:18.808Z,1.60
2017-10-21T19:14:45.427Z,1.83
2017-10-21T19:17:12.021Z,1.83
2017-10-21T19:19:38.645Z,1.60
2017-10-21T19:22:05.233Z,1.63
2017-10-21T19:24:31.877Z,1.43
2017-10-21T19:26:58.455Z,1.53
2017-10-21T19:29:25.095Z,1.90
2017-10-21T19:31:51.790Z,1.63
2017-10-21T19:34:18.422Z,2.10
2017-10-21T19:36:45.034Z,1.40
2017-10-21T19:39:11.621Z,1.80
2017-10-21T19:41:38.238Z,2.23
2017-10-21T19:44:04.833Z,2.17
2017-10-21T19:46:31.518Z,2.20
2017-10-21T19:48:58.105Z,2.47
2017-10-21T19:51:24.726Z,2.27
2017-10-21T19:53:51.337Z,2.40
2017-10-21T19:56:17.963Z,1.57
2017-10-21T19:58:44.565Z,1.63
2017-10-21T20:01:11.158Z,1.80
2017-10-21T20:03:37.777Z,1.87
2017-10-21T20:06:04.376Z,2.10
2017-10-21T20:08:31.003Z,1.37
2017-10-21T20:10:57.628Z,2.03
2017-10-21T20:13:24.249Z,1.30
2017-10-21T20:15:50.849Z,1.50
2017-10-21T20:18:17.464Z,1.47
2017-10-21T20:20:44.076Z,1.67
2017-10-21T20:23:10.685Z,1.40
2017-10-21T20:25:37.325Z,1.77
2017-10-21T20:28:03.950Z,1.70
2017-10-21T20:30:30.531Z,1.87
2017-10-21T20:32:57.132Z,1.70
2017-10-21T20:35:23.880Z,1.80
2017-10-21T20:37:50.529Z,1.77
2017-10-21T20:40:17.117Z,1.97
2017-10-21T20:42:43.711Z,2.07
2017-10-21T20:45:10.328Z,2.03
2017-10-21T20:47:36.931Z,1.93
2017-10-21T20:50:03.543Z,1.70
2017-10-21T20:52:30.147Z,1.70
2017-10-21T20:54:56.784Z,1.63
2017-10-21T20:57:23.404Z,1.73
2017-10-21T20:59:50.013Z,1.83
2017-10-21T21:02:16.636Z,1.87
2017-10-21T21:04:43.235Z,2.27
2017-10-21T21:07:09.830Z,1.60
2017-10-21T21:09:36.447Z,1.50
2017-10-21T21:12:03.078Z,1.90
2017-10-21T21:14:29.672Z,1.80
2017-10-21T21:16:56.272Z,1.70
2017-10-21T21:19:22.913Z,1.90
2017-10-21T21:21:49.615Z,2.07
2017-10-21T21:24:16.200Z,1.47
2017-10-21T21:26:42.818Z,1.90
2017-10-21T21:29:09.413Z,1.70
2017-10-21T21:31:36.020Z,1.80
2017-10-21T21:34:02.651Z,1.80
2017-10-21T21:36:29.245Z,1.77
2017-10-21T21:38:55.845Z,1.60
2017-10-21T21:41:22.477Z,1.77
2017-10-21T21:43:49.097Z,1.80
2017-10-21T21:46:15.678Z,1.73
2017-10-21T21:48:42.285Z,1.80
2017-10-21T21:51:08.897Z,1.73
2017-10-21T21:53:35.499Z,1.60
2017-10-21T21:56:02.213Z,1.70
2017-10-21T21:58:28.861Z,1.70
2017-10-21T22:00:55.504Z,1.63
2017-10-21T22:03:22.195Z,1.40
2017-10-21T22:05:48.866Z,2.17
2017-10-21T22:08:15.572Z,1.87
2017-10-21T22:10:42.177Z,2.13
2017-10-21T22:13:08.774Z,1.60
2017-10-21T22:15:35.376Z,1.40
2017-10-21T22:18:01.980Z,1.30
2017-10-21T22:20:28.653Z,1.83
2017-10-21T22:22:55.261Z,1.47
2017-10-21T22:25:21.869Z,1.40
2017-10-21T22:27:48.472Z,1.00
2017-10-21T22:30:15.143Z,1.47
2017-10-21T22:32:41.800Z,1.70
2017-10-21T22:35:08.404Z,1.50
2017-10-21T22:37:35.030Z,3.00
2017-10-21T22:40:01.629Z,1.50
2017-10-21T22:42:28.237Z,1.60
2017-10-21T22:44:54.828Z,1.83
2017-10-21T22:47:21.456Z,1.53
2017-10-21T22:49:48.050Z,1.50
2017-10-21T22:52:14.644Z,1.60
2017-10-21T22:54:41.265Z,1.97
2017-10-21T22:57:07.893Z,1.40
2017-10-21T22:59:34.499Z,1.70
2017-10-21T23:02:01.102Z,1.37
2017-10-21T23:04:27.744Z,1.50
2017-10-21T23:06:54.353Z,1.90
2017-10-21T23:09:20.985Z,2.03
2017-10-21T23:11:47.584Z,2.33
2017-10-21T23:14:14.193Z,2.00
2017-10-21T23:16:40.785Z,1.83
2017-10-21T23:19:07.391Z,1.50
2017-10-21T23:21:34.009Z,1.40
2017-10-21T23:24:00.600Z,1.23
2017-10-21T23:26:27.251Z,0.90
2017-10-21T23:28:53.841Z,1.47
2017-10-21T23:31:20.443Z,0.90
2017-10-21T23:33:47.142Z,0.90
2017-10-21T23:36:13.745Z,1.20
2017-10-21T23:38:40.377Z,1.10
2017-10-21T23:41:06.977Z,1.03
2017-10-21T23:43:33.590Z,1.33
2017-10-21T23:46:00.208Z,1.37
2017-10-21T23:48:26.836Z,1.70
2017-10-21T23:50:53.445Z,2.33
2017-10-21T23:53:25.969Z,2.60
2017-10-21T23:55:52.592Z,2.00
2017-10-21T23:58:19.188Z,1.97
